createdAt,value
2019-01-09T00:00:39.264Z,1.90
2019-01-09T00:03:05.752Z,2.40
2019-01-09T00:05:32.150Z,1.70
2019-01-09T00:07:58.619Z,2.47
2019-01-09T00:10:25.164Z,2.47
2019-01-09T00:12:51.723Z,2.70
2019-01-09T00:15:18.191Z,2.57
2019-01-09T00:17:44.775Z,2.13
2019-01-09T00:20:11.328Z,2.63
2019-01-09T00:22:37.787Z,2.13
2019-01-09T00:25:04.234Z,2.10
2019-01-09T00:27:30.693Z,1.80
2019-01-09T00:29:57.409Z,2.27
2019-01-09T00:32:23.962Z,2.37
2019-01-09T00:34:50.567Z,2.23
2019-01-09T00:37:17.122Z,1.63
2019-01-09T00:39:43.683Z,2.17
2019-01-09T00:42:10.131Z,2.70
2019-01-09T00:44:36.606Z,2.17
2019-01-09T00:47:03.163Z,1.90
2019-01-09T00:49:29.623Z,2.23
2019-01-09T00:51:56.078Z,2.73
2019-01-09T00:54:22.654Z,1.70
2019-01-09T00:56:49.111Z,1.53
2019-01-09T00:59:15.583Z,2.17
2019-01-09T01:01:43.957Z,1.37
2019-01-09T01:04:12.323Z,2.20
2019-01-09T01:06:40.676Z,1.63
2019-01-09T01:09:09.052Z,1.70
2019-01-09T01:11:37.311Z,1.93
2019-01-09T01:14:05.573Z,1.40
2019-01-09T01:16:34.003Z,2.30
2019-01-09T01:19:02.352Z,1.73
2019-01-09T01:21:30.746Z,2.10
2019-01-09T01:23:59.108Z,1.73
2019-01-09T01:26:27.494Z,1.67
2019-01-09T01:28:55.848Z,2.23
2019-01-09T01:31:24.231Z,1.73
2019-01-09T01:33:52.592Z,1.53
2019-01-09T01:36:20.977Z,1.50
2019-01-09T01:38:49.317Z,1.60
2019-01-09T01:41:17.702Z,1.53
2019-01-09T01:43:46.042Z,2.17
2019-01-09T01:46:14.415Z,1.80
2019-01-09T01:48:42.769Z,1.50
2019-01-09T01:51:10.242Z,2.43
2019-01-09T01:53:38.590Z,1.50
2019-01-09T01:56:06.975Z,1.40
2019-01-09T01:58:35.323Z,1.60
2019-01-09T02:01:03.736Z,1.20
2019-01-09T02:03:32.077Z,1.47
2019-01-09T02:06:03.950Z,1.60
2019-01-09T02:08:30.711Z,1.10
2019-01-09T02:10:58.963Z,1.40
2019-01-09T02:13:27.257Z,1.07
2019-01-09T02:15:55.649Z,0.83
2019-01-09T02:18:24.014Z,1.00
2019-01-09T02:20:52.490Z,1.20
2019-01-09T02:23:20.849Z,1.00
2019-01-09T02:25:49.209Z,1.43
2019-01-09T02:28:17.575Z,1.20
2019-01-09T02:30:45.855Z,0.93
2019-01-09T02:33:12.350Z,0.60
2019-01-09T02:35:38.799Z,0.87
2019-01-09T02:38:05.266Z,0.73
2019-01-09T02:40:31.724Z,0.90
2019-01-09T02:42:58.229Z,1.17
2019-01-09T02:45:24.863Z,0.87
2019-01-09T02:47:51.432Z,0.70
2019-01-09T02:50:17.875Z,0.37
2019-01-09T02:52:44.372Z,1.00
2019-01-09T02:55:10.831Z,0.80
2019-01-09T02:57:37.288Z,0.60
2019-01-09T03:00:05.659Z,0.57
2019-01-09T03:02:32.953Z,0.80
2019-01-09T03:04:59.427Z,0.70
2019-01-09T03:07:26.020Z,0.93
2019-01-09T03:09:52.490Z,0.50
2019-01-09T03:12:18.935Z,0.93
2019-01-09T03:14:45.403Z,0.70
2019-01-09T03:17:11.998Z,0.73
2019-01-09T03:19:38.457Z,0.77
2019-01-09T03:22:04.915Z,0.93
2019-01-09T03:24:31.422Z,0.80
2019-01-09T03:26:57.875Z,0.90
2019-01-09T03:29:24.358Z,0.97
2019-01-09T03:31:50.830Z,0.90
2019-01-09T03:34:17.274Z,0.93
2019-01-09T03:36:43.743Z,1.20
2019-01-09T03:39:10.191Z,1.43
2019-01-09T03:41:36.650Z,0.97
2019-01-09T03:44:03.099Z,1.17
2019-01-09T03:46:29.467Z,1.03
2019-01-09T03:48:55.933Z,1.10
2019-01-09T03:51:22.399Z,1.40
2019-01-09T03:53:48.862Z,1.23
2019-01-09T03:56:15.231Z,1.30
2019-01-09T03:58:41.674Z,1.47
2019-01-09T04:01:08.291Z,1.63
2019-01-09T04:03:34.720Z,1.30
2019-01-09T04:06:01.190Z,2.50
2019-01-09T04:08:27.764Z,1.60
2019-01-09T04:10:54.309Z,1.50
2019-01-09T04:13:20.798Z,1.73
2019-01-09T04:15:47.306Z,1.50
2019-01-09T04:18:13.701Z,1.37
2019-01-09T04:20:40.060Z,1.70
2019-01-09T04:23:06.567Z,1.30
2019-01-09T04:25:33.136Z,1.30
2019-01-09T04:27:59.607Z,1.60
2019-01-09T04:30:26.083Z,1.80
2019-01-09T04:32:52.572Z,1.43
2019-01-09T04:35:19.405Z,1.50
2019-01-09T04:37:45.955Z,1.50
2019-01-09T04:40:12.514Z,1.30
2019-01-09T04:42:38.876Z,1.67
2019-01-09T04:45:05.975Z,1.10
2019-01-09T04:47:32.464Z,1.40
2019-01-09T04:49:59.087Z,1.47
2019-01-09T04:52:25.650Z,1.30
2019-01-09T04:54:52.100Z,1.30
2019-01-09T04:57:18.555Z,1.27
2019-01-09T04:59:45.039Z,1.10
2019-01-09T05:02:11.486Z,1.17
2019-01-09T05:04:37.870Z,1.10
2019-01-09T05:07:04.339Z,1.13
2019-01-09T05:09:30.914Z,0.70
2019-01-09T05:11:57.356Z,0.70
2019-01-09T05:14:23.828Z,0.70
2019-01-09T05:16:50.321Z,0.63
2019-01-09T05:19:16.809Z,0.83
2019-01-09T05:21:43.273Z,0.90
2019-01-09T05:24:09.780Z,1.40
2019-01-09T05:26:36.115Z,0.63
2019-01-09T05:29:02.603Z,0.67
2019-01-09T05:31:28.959Z,0.90
2019-01-09T05:33:55.320Z,0.80
2019-01-09T05:36:21.785Z,0.83
2019-01-09T05:38:48.236Z,0.67
2019-01-09T05:41:14.812Z,0.80
2019-01-09T05:43:41.271Z,0.80
2019-01-09T05:46:07.861Z,0.70
2019-01-09T05:48:34.300Z,0.60
2019-01-09T05:51:00.893Z,0.97
2019-01-09T05:53:27.439Z,1.00
2019-01-09T05:55:53.908Z,0.73
2019-01-09T05:58:20.358Z,0.40
2019-01-09T06:00:46.723Z,0.80
2019-01-09T06:03:13.295Z,1.00
2019-01-09T06:05:39.780Z,0.60
2019-01-09T06:08:06.244Z,1.00
2019-01-09T06:10:32.726Z,0.67
2019-01-09T06:12:59.117Z,0.90
2019-01-09T06:15:25.569Z,1.30
2019-01-09T06:17:51.952Z,0.90
2019-01-09T06:20:18.401Z,1.20
2019-01-09T06:22:44.879Z,0.83
2019-01-09T06:25:11.227Z,1.00
2019-01-09T06:27:37.591Z,0.93
2019-01-09T06:30:04.566Z,0.80
2019-01-09T06:32:31.160Z,1.20
2019-01-09T06:34:57.734Z,1.30
2019-01-09T06:37:27.525Z,0.90
2019-01-09T06:39:52.466Z,0.90
2019-01-09T06:42:18.944Z,1.37
2019-01-09T06:44:45.310Z,0.87
2019-01-09T06:47:11.877Z,0.80
2019-01-09T06:49:38.440Z,0.90
2019-01-09T06:52:04.934Z,1.07
2019-01-09T06:54:31.511Z,1.20
2019-01-09T06:56:57.966Z,1.00
2019-01-09T06:59:24.423Z,1.20
2019-01-09T07:01:51.015Z,0.90
2019-01-09T07:04:17.508Z,1.00
2019-01-09T07:06:44.056Z,1.00
2019-01-09T07:09:10.524Z,0.83
2019-01-09T07:11:36.991Z,1.07
2019-01-09T07:14:03.453Z,0.90
2019-01-09T07:16:29.833Z,0.97
2019-01-09T07:18:56.311Z,1.00
2019-01-09T07:21:22.683Z,0.90
2019-01-09T07:23:49.169Z,1.60
2019-01-09T07:26:15.981Z,0.80
2019-01-09T07:28:42.458Z,1.10
2019-01-09T07:31:09.012Z,0.90
2019-01-09T07:33:35.564Z,1.10
2019-01-09T07:36:02.049Z,1.60
2019-01-09T07:38:28.591Z,1.50
2019-01-09T07:40:55.070Z,0.90
2019-01-09T07:43:21.638Z,1.10
2019-01-09T07:45:48.112Z,1.13
2019-01-09T07:48:14.667Z,1.07
2019-01-09T07:50:41.141Z,1.13
2019-01-09T07:53:07.687Z,1.30
2019-01-09T07:55:34.264Z,1.50
2019-01-09T07:58:00.624Z,1.07
2019-01-09T08:00:27.014Z,1.30
2019-01-09T08:02:53.573Z,1.47
2019-01-09T08:05:20.055Z,1.63
2019-01-09T08:07:53.819Z,0.90
2019-01-09T08:10:14.798Z,1.13
2019-01-09T08:12:41.188Z,1.20
2019-01-09T08:15:07.733Z,1.03
2019-01-09T08:17:34.210Z,1.50
2019-01-09T08:20:00.878Z,1.17
2019-01-09T08:22:27.349Z,1.20
2019-01-09T08:24:53.710Z,1.40
2019-01-09T08:27:20.185Z,1.63
2019-01-09T08:29:46.547Z,1.20
2019-01-09T08:32:13.029Z,1.40
2019-01-09T08:34:39.592Z,0.97
2019-01-09T08:37:05.981Z,1.27
2019-01-09T08:39:32.760Z,1.07
2019-01-09T08:41:59.352Z,1.30
2019-01-09T08:44:25.922Z,1.40
2019-01-09T08:46:52.391Z,1.43
2019-01-09T08:49:18.960Z,1.50
2019-01-09T08:51:45.446Z,1.33
2019-01-09T08:54:11.994Z,1.50
2019-01-09T08:56:38.462Z,1.20
2019-01-09T08:59:05.120Z,1.30
2019-01-09T09:01:31.690Z,1.30
2019-01-09T09:03:58.248Z,1.33
2019-01-09T09:06:24.811Z,1.20
2019-01-09T09:08:51.480Z,1.60
2019-01-09T09:11:17.827Z,1.30
2019-01-09T09:13:44.224Z,1.50
2019-01-09T09:16:10.820Z,1.30
2019-01-09T09:18:37.297Z,1.60
2019-01-09T09:21:03.743Z,1.30
2019-01-09T09:23:30.222Z,1.80
2019-01-09T09:25:56.573Z,1.30
2019-01-09T09:28:22.947Z,1.13
2019-01-09T09:30:49.294Z,1.33
2019-01-09T09:33:15.673Z,1.40
2019-01-09T09:35:44.667Z,1.43
2019-01-09T09:38:11.036Z,2.00
2019-01-09T09:40:37.591Z,1.20
2019-01-09T09:43:04.043Z,1.47
2019-01-09T09:45:30.600Z,1.20
2019-01-09T09:47:57.056Z,1.33
2019-01-09T09:50:23.624Z,1.07
2019-01-09T09:52:50.170Z,1.00
2019-01-09T09:55:16.639Z,1.20
2019-01-09T09:57:43.210Z,1.67
2019-01-09T10:00:11.475Z,1.47
2019-01-09T10:02:37.920Z,1.33
2019-01-09T10:05:04.523Z,1.80
2019-01-09T10:07:30.971Z,1.33
2019-01-09T10:09:57.439Z,1.90
2019-01-09T10:12:23.791Z,1.40
2019-01-09T10:14:50.370Z,1.50
2019-01-09T10:17:16.867Z,1.30
2019-01-09T10:19:43.254Z,1.50
2019-01-09T10:22:09.688Z,1.83
2019-01-09T10:24:36.080Z,1.20
2019-01-09T10:27:02.760Z,1.57
2019-01-09T10:29:29.107Z,1.50
2019-01-09T10:31:55.589Z,1.23
2019-01-09T10:34:22.056Z,1.70
2019-01-09T10:36:48.552Z,1.63
2019-01-09T10:39:15.228Z,1.73
2019-01-09T10:41:41.687Z,1.47
2019-01-09T10:44:08.239Z,1.70
2019-01-09T10:46:34.811Z,1.20
2019-01-09T10:49:01.365Z,1.87
2019-01-09T10:51:27.748Z,1.07
2019-01-09T10:53:54.300Z,1.93
2019-01-09T10:56:20.780Z,1.40
2019-01-09T10:58:47.235Z,2.17
2019-01-09T11:01:13.837Z,1.57
2019-01-09T11:03:40.189Z,1.80
2019-01-09T11:06:06.553Z,1.33
2019-01-09T11:08:33.229Z,1.93
2019-01-09T11:10:59.799Z,1.33
2019-01-09T11:13:26.157Z,2.93
2019-01-09T11:15:52.543Z,1.97
2019-01-09T11:18:19.141Z,1.70
2019-01-09T11:20:45.724Z,1.90
2019-01-09T11:23:12.228Z,1.67
2019-01-09T11:25:38.764Z,1.50
2019-01-09T11:28:05.150Z,1.80
2019-01-09T11:30:31.509Z,1.87
2019-01-09T11:32:57.985Z,1.10
2019-01-09T11:35:24.532Z,1.07
2019-01-09T11:37:52.928Z,1.10
2019-01-09T11:40:19.362Z,1.23
2019-01-09T11:42:45.828Z,1.40
2019-01-09T11:45:13.479Z,1.20
2019-01-09T11:47:40.052Z,1.73
2019-01-09T11:50:07.798Z,2.37
2019-01-09T11:52:34.289Z,1.50
2019-01-09T11:55:00.845Z,1.13
2019-01-09T11:57:27.337Z,1.30
2019-01-09T11:59:53.734Z,1.50
2019-01-09T12:02:22.200Z,1.60
2019-01-09T12:04:48.395Z,1.43
2019-01-09T12:07:14.848Z,1.97
2019-01-09T12:09:41.411Z,2.13
2019-01-09T12:12:07.772Z,2.07
2019-01-09T12:14:34.240Z,1.40
2019-01-09T12:17:00.760Z,1.60
2019-01-09T12:19:27.331Z,1.40
2019-01-09T12:21:53.886Z,1.50
2019-01-09T12:24:20.471Z,1.40
2019-01-09T12:26:46.936Z,1.50
2019-01-09T12:29:13.404Z,1.40
2019-01-09T12:31:39.864Z,1.80
2019-01-09T12:34:06.331Z,2.37
2019-01-09T12:36:32.779Z,1.50
2019-01-09T12:38:59.169Z,2.17
2019-01-09T12:41:25.627Z,1.90
2019-01-09T12:43:52.112Z,2.63
2019-01-09T12:46:18.566Z,1.70
2019-01-09T12:48:44.965Z,2.20
2019-01-09T12:51:11.329Z,1.53
2019-01-09T12:53:37.903Z,1.10
2019-01-09T12:56:05.464Z,1.33
2019-01-09T12:58:32.040Z,1.37
2019-01-09T13:00:58.537Z,1.33
2019-01-09T13:03:24.989Z,1.67
2019-01-09T13:05:51.564Z,1.13
2019-01-09T13:08:18.024Z,1.70
2019-01-09T13:10:44.425Z,1.50
2019-01-09T13:13:10.979Z,1.30
2019-01-09T13:15:37.479Z,0.90
2019-01-09T13:18:05.361Z,1.00
2019-01-09T13:20:31.923Z,1.37
2019-01-09T13:22:58.333Z,1.10
2019-01-09T13:25:24.908Z,0.80
2019-01-09T13:27:51.357Z,1.00
2019-01-09T13:30:18.838Z,1.30
2019-01-09T13:32:45.385Z,1.10
2019-01-09T13:35:11.760Z,0.80
2019-01-09T13:37:38.119Z,0.97
2019-01-09T13:40:06.564Z,1.10
2019-01-09T13:42:32.932Z,1.07
2019-01-09T13:44:59.379Z,1.17
2019-01-09T13:47:25.888Z,0.93
2019-01-09T13:49:52.436Z,1.13
2019-01-09T13:52:18.903Z,1.20
2019-01-09T13:54:45.453Z,1.00
2019-01-09T13:57:11.945Z,1.10
2019-01-09T13:59:38.391Z,1.57
2019-01-09T14:02:04.872Z,1.30
2019-01-09T14:04:31.232Z,1.30
2019-01-09T14:06:57.604Z,1.20
2019-01-09T14:09:24.063Z,1.53
2019-01-09T14:11:50.615Z,1.53
2019-01-09T14:14:17.073Z,1.50
2019-01-09T14:16:45.319Z,1.37
2019-01-09T14:19:11.927Z,1.20
2019-01-09T14:21:38.513Z,1.80
2019-01-09T14:24:04.859Z,1.70
2019-01-09T14:26:31.327Z,1.57
2019-01-09T14:28:57.687Z,1.50
2019-01-09T14:31:24.048Z,1.60
2019-01-09T14:33:50.400Z,1.50
2019-01-09T14:36:16.807Z,1.40
2019-01-09T14:38:43.256Z,1.40
2019-01-09T14:41:09.739Z,1.50
2019-01-09T14:43:36.187Z,1.50
2019-01-09T14:46:02.840Z,1.40
2019-01-09T14:48:29.231Z,1.63
2019-01-09T14:50:55.891Z,1.90
2019-01-09T14:53:22.360Z,1.63
2019-01-09T14:55:48.915Z,2.00
2019-01-09T14:58:15.535Z,1.70
2019-01-09T15:00:41.885Z,1.63
2019-01-09T15:03:08.422Z,1.73
2019-01-09T15:05:35.081Z,2.00
2019-01-09T15:08:01.735Z,1.60
2019-01-09T15:10:28.192Z,1.60
2019-01-09T15:12:55.084Z,1.90
2019-01-09T15:15:21.687Z,1.43
2019-01-09T15:17:48.228Z,1.83
2019-01-09T15:20:15.473Z,2.00
2019-01-09T15:22:41.936Z,1.60
2019-01-09T15:25:09.319Z,2.03
2019-01-09T15:27:35.784Z,2.10
2019-01-09T15:30:04.054Z,2.40
2019-01-09T15:32:30.504Z,1.83
2019-01-09T15:34:57.098Z,1.90
2019-01-09T15:37:23.661Z,2.10
2019-01-09T15:39:50.255Z,2.00
2019-01-09T15:42:16.713Z,1.67
2019-01-09T15:44:43.178Z,2.20
2019-01-09T15:47:09.648Z,3.87
2019-01-09T15:49:36.211Z,2.23
2019-01-09T15:52:02.866Z,2.60
2019-01-09T15:54:29.331Z,2.00
2019-01-09T15:56:55.893Z,3.00
2019-01-09T15:59:22.387Z,1.70
2019-01-09T16:01:48.859Z,2.43
2019-01-09T16:04:15.424Z,2.27
2019-01-09T16:06:41.831Z,1.93
2019-01-09T16:09:08.214Z,2.20
2019-01-09T16:11:34.767Z,2.50
2019-01-09T16:14:01.360Z,1.87
2019-01-09T16:16:27.856Z,1.97
2019-01-09T16:18:54.253Z,2.23
2019-01-09T16:21:20.654Z,2.03
2019-01-09T16:23:47.106Z,2.20
2019-01-09T16:26:13.576Z,2.40
2019-01-09T16:28:40.023Z,2.27
2019-01-09T16:31:08.399Z,2.33
2019-01-09T16:33:34.960Z,2.20
2019-01-09T16:36:03.315Z,2.10
2019-01-09T16:38:29.904Z,2.30
2019-01-09T16:40:56.356Z,2.00
2019-01-09T16:43:22.828Z,2.40
2019-01-09T16:45:49.293Z,2.37
2019-01-09T16:48:15.897Z,1.83
2019-01-09T16:50:42.448Z,2.20
2019-01-09T16:53:08.911Z,2.07
2019-01-09T16:55:35.267Z,2.37
2019-01-09T16:58:01.759Z,2.17
2019-01-09T17:00:30.097Z,3.00
2019-01-09T17:02:56.565Z,2.20
2019-01-09T17:05:23.023Z,2.03
2019-01-09T17:07:49.802Z,3.03
2019-01-09T17:10:16.460Z,2.00
2019-01-09T17:12:43.158Z,2.20
2019-01-09T17:15:11.523Z,2.40
2019-01-09T17:17:38.145Z,2.53
2019-01-09T17:20:06.396Z,2.70
2019-01-09T17:22:32.957Z,2.30
2019-01-09T17:24:59.425Z,2.70
2019-01-09T17:27:25.876Z,3.00
2019-01-09T17:29:52.455Z,2.47
2019-01-09T17:32:18.903Z,2.90
2019-01-09T17:34:45.378Z,2.10
2019-01-09T17:37:12.064Z,2.57
2019-01-09T17:39:40.340Z,2.37
2019-01-09T17:42:06.801Z,2.43
2019-01-09T17:44:33.275Z,2.30
2019-01-09T17:46:59.834Z,2.50
2019-01-09T17:49:26.302Z,2.23
2019-01-09T17:51:52.768Z,2.40
2019-01-09T17:54:19.256Z,2.40
2019-01-09T17:56:45.717Z,2.60
2019-01-09T17:59:12.188Z,2.30
2019-01-09T18:01:38.640Z,2.77
2019-01-09T18:04:05.527Z,3.20
2019-01-09T18:06:32.100Z,3.20
2019-01-09T18:08:58.643Z,3.10
2019-01-09T18:11:25.208Z,2.50
2019-01-09T18:13:51.662Z,2.50
2019-01-09T18:16:18.288Z,2.37
2019-01-09T18:18:44.879Z,2.80
2019-01-09T18:21:11.454Z,2.70
2019-01-09T18:23:38.017Z,3.03
2019-01-09T18:26:04.890Z,3.00
2019-01-09T18:28:31.340Z,2.40
2019-01-09T18:31:03.623Z,3.10
2019-01-09T18:33:29.984Z,2.80
2019-01-09T18:35:56.459Z,2.73
2019-01-09T18:38:24.808Z,2.97
2019-01-09T18:40:59.279Z,3.00
2019-01-09T18:43:20.568Z,3.27
2019-01-09T18:45:48.979Z,3.47
2019-01-09T18:48:16.430Z,3.57
2019-01-09T18:50:44.787Z,3.97
2019-01-09T18:53:13.185Z,3.33
2019-01-09T18:55:39.723Z,3.07
2019-01-09T18:58:06.203Z,2.90
2019-01-09T19:00:32.661Z,3.57
2019-01-09T19:02:59.259Z,3.80
2019-01-09T19:05:25.815Z,4.30
2019-01-09T19:07:52.192Z,3.60
2019-01-09T19:10:19.651Z,3.33
2019-01-09T19:12:46.219Z,4.00
2019-01-09T19:15:13.471Z,3.40
2019-01-09T19:17:39.952Z,4.10
2019-01-09T19:20:07.415Z,3.93
2019-01-09T19:22:33.879Z,3.57
2019-01-09T19:25:00.323Z,4.00
2019-01-09T19:27:26.799Z,3.53
2019-01-09T19:29:53.357Z,3.50
2019-01-09T19:32:19.720Z,3.80
2019-01-09T19:34:46.303Z,3.80
2019-01-09T19:37:12.655Z,4.17
2019-01-09T19:39:39.028Z,3.53
2019-01-09T19:42:05.494Z,4.23
2019-01-09T19:44:31.886Z,3.87
2019-01-09T19:46:58.450Z,4.53
2019-01-09T19:49:24.923Z,4.07
2019-01-09T19:51:51.481Z,4.67
2019-01-09T19:54:17.982Z,4.10
2019-01-09T19:56:44.540Z,4.27
2019-01-09T19:59:11.305Z,4.63
2019-01-09T20:01:37.697Z,4.53
2019-01-09T20:04:04.163Z,5.00
2019-01-09T20:06:30.733Z,4.23
2019-01-09T20:08:57.127Z,4.70
2019-01-09T20:11:26.534Z,5.40
2019-01-09T20:13:52.140Z,4.43
2019-01-09T20:16:18.791Z,4.77
2019-01-09T20:18:45.399Z,4.50
2019-01-09T20:21:11.897Z,3.80
2019-01-09T20:23:38.361Z,4.13
2019-01-09T20:26:04.893Z,3.83
2019-01-09T20:28:31.589Z,4.23
2019-01-09T20:30:58.185Z,4.30
2019-01-09T20:33:24.733Z,4.13
2019-01-09T20:35:51.222Z,4.20
2019-01-09T20:38:18.021Z,4.20
2019-01-09T20:40:44.539Z,3.93
2019-01-09T20:43:11.202Z,4.30
2019-01-09T20:45:37.865Z,4.10
2019-01-09T20:48:04.336Z,4.37
2019-01-09T20:50:30.905Z,3.43
2019-01-09T20:52:57.468Z,4.07
2019-01-09T20:55:24.057Z,2.87
2019-01-09T20:57:50.543Z,2.93
2019-01-09T21:00:18.806Z,3.53
2019-01-09T21:02:45.364Z,3.07
2019-01-09T21:05:13.822Z,3.30
2019-01-09T21:07:40.444Z,3.43
2019-01-09T21:10:08.877Z,3.80
2019-01-09T21:12:36.553Z,2.83
2019-01-09T21:15:04.915Z,3.47
2019-01-09T21:17:31.511Z,3.70
2019-01-09T21:19:58.349Z,3.00
2019-01-09T21:22:24.926Z,2.63
2019-01-09T21:24:51.371Z,3.10
2019-01-09T21:27:17.899Z,3.17
2019-01-09T21:29:44.305Z,3.17
2019-01-09T21:32:10.890Z,3.33
2019-01-09T21:34:37.344Z,3.00
2019-01-09T21:37:03.915Z,3.10
2019-01-09T21:39:30.374Z,3.37
2019-01-09T21:41:56.870Z,3.03
2019-01-09T21:44:23.431Z,3.07
2019-01-09T21:46:49.825Z,2.70
2019-01-09T21:49:16.418Z,2.80
2019-01-09T21:51:42.871Z,2.33
2019-01-09T21:54:09.354Z,3.20
2019-01-09T21:56:35.902Z,2.93
2019-01-09T21:59:02.373Z,2.60
2019-01-09T22:01:28.833Z,2.73
2019-01-09T22:03:55.418Z,2.70
2019-01-09T22:06:21.879Z,2.83
2019-01-09T22:08:48.375Z,2.20
2019-01-09T22:11:14.813Z,2.47
2019-01-09T22:13:41.389Z,3.17
2019-01-09T22:16:07.981Z,2.37
2019-01-09T22:18:34.449Z,2.57
2019-01-09T22:21:01.004Z,2.67
2019-01-09T22:23:27.488Z,2.17
2019-01-09T22:25:53.944Z,2.50
2019-01-09T22:28:20.395Z,2.20
2019-01-09T22:30:46.884Z,2.43
2019-01-09T22:33:13.339Z,2.63
2019-01-09T22:35:41.632Z,2.23
2019-01-09T22:38:08.071Z,2.00
2019-01-09T22:40:34.653Z,2.30
2019-01-09T22:43:01.015Z,2.17
2019-01-09T22:45:27.507Z,2.67
2019-01-09T22:47:53.968Z,2.37
2019-01-09T22:50:21.275Z,2.37
2019-01-09T22:52:48.026Z,2.10
2019-01-09T22:55:14.619Z,2.23
2019-01-09T22:57:41.171Z,2.13
2019-01-09T23:00:09.448Z,1.97
2019-01-09T23:02:35.894Z,2.40
2019-01-09T23:05:03.399Z,1.90
2019-01-09T23:07:29.926Z,2.30
2019-01-09T23:09:56.476Z,2.40
2019-01-09T23:12:22.953Z,2.10
2019-01-09T23:14:49.511Z,1.90
2019-01-09T23:17:16.038Z,1.90
2019-01-09T23:19:42.480Z,2.10
2019-01-09T23:22:08.847Z,2.03
2019-01-09T23:24:35.321Z,2.03
2019-01-09T23:27:01.804Z,1.70
2019-01-09T23:29:28.267Z,2.17
2019-01-09T23:31:54.864Z,2.03
2019-01-09T23:34:21.403Z,1.50
2019-01-09T23:36:47.886Z,2.00
2019-01-09T23:39:14.333Z,2.00
2019-01-09T23:41:40.809Z,2.07
2019-01-09T23:44:07.169Z,2.10
2019-01-09T23:46:34.761Z,1.70
2019-01-09T23:49:01.296Z,1.90
2019-01-09T23:51:27.767Z,1.70
2019-01-09T23:53:54.231Z,1.77
2019-01-09T23:56:20.829Z,2.10
2019-01-09T23:58:47.266Z,1.73
